sensor_id;sensor_type;location;lat;lon;timestamp;pressure;altitude;pressure_sealevel;temperature;humidity
75629;BME280;64213;46.452;16.994;2024-02-14T00:00:14;100525.25;;;1.14;100.00
75629;BME280;64213;46.452;16.994;2024-02-14T00:03:17;100520.28;;;1.02;100.00
75629;BME280;64213;46.452;16.994;2024-02-14T00:06:20;100528.25;;;0.91;100.00
75629;BME280;64213;46.452;16.994;2024-02-14T00:09:22;100531.72;;;0.92;100.00
75629;BME280;64213;46.452;16.994;2024-02-14T00:12:24;100532.66;;;0.89;100.00
75629;BME280;64213;46.452;16.994;2024-02-14T00:15:27;100538.81;;;0.82;100.00
75629;BME280;64213;46.452;16.994;2024-02-14T00:18:29;100545.00;;;0.77;100.00
75629;BME280;64213;46.452;16.994;2024-02-14T00:21:33;100539.84;;;0.74;100.00
75629;BME280;64213;46.452;16.994;2024-02-14T00:24:36;100549.44;;;0.68;100.00
75629;BME280;64213;46.452;16.994;2024-02-14T00:27:39;100552.09;;;0.65;100.00
75629;BME280;64213;46.452;16.994;2024-02-14T00:30:41;100555.56;;;0.66;100.00
75629;BME280;64213;46.452;16.994;2024-02-14T00:33:44;100558.13;;;0.69;100.00
75629;BME280;64213;46.452;16.994;2024-02-14T00:36:48;100550.34;;;0.67;100.00
75629;BME280;64213;46.452;16.994;2024-02-14T00:39:51;100557.25;;;0.68;100.00
75629;BME280;64213;46.452;16.994;2024-02-14T00:42:53;100556.47;;;0.63;100.00
75629;BME280;64213;46.452;16.994;2024-02-14T00:45:56;100559.09;;;0.62;100.00
75629;BME280;64213;46.452;16.994;2024-02-14T00:48:58;100561.75;;;0.59;100.00
75629;BME280;64213;46.452;16.994;2024-02-14T00:52:02;100560.13;;;0.50;100.00
75629;BME280;64213;46.452;16.994;2024-02-14T00:55:04;100559.28;;;0.51;100.00
75629;BME280;64213;46.452;16.994;2024-02-14T00:58:07;100570.62;;;0.45;100.00
75629;BME280;64213;46.452;16.994;2024-02-14T01:01:09;100570.59;;;0.47;100.00
75629;BME280;64213;46.452;16.994;2024-02-14T01:04:12;100569.78;;;0.45;100.00
75629;BME280;64213;46.452;16.994;2024-02-14T01:07:14;100574.12;;;0.43;100.00
75629;BME280;64213;46.452;16.994;2024-02-14T01:10:17;100577.53;;;0.48;100.00
75629;BME280;64213;46.452;16.994;2024-02-14T01:13:20;100576.72;;;0.43;100.00
75629;BME280;64213;46.452;16.994;2024-02-14T01:16:24;100577.75;;;0.31;100.00
75629;BME280;64213;46.452;16.994;2024-02-14T01:19:28;100569.16;;;0.26;100.00
75629;BME280;64213;46.452;16.994;2024-02-14T01:22:31;100574.44;;;0.18;100.00
75629;BME280;64213;46.452;16.994;2024-02-14T01:25:33;100568.41;;;0.16;100.00
75629;BME280;64213;46.452;16.994;2024-02-14T01:28:37;100565.81;;;0.15;100.00
75629;BME280;64213;46.452;16.994;2024-02-14T01:31:39;100571.06;;;0.13;100.00
75629;BME280;64213;46.452;16.994;2024-02-14T01:34:42;100570.25;;;0.08;100.00
75629;BME280;64213;46.452;16.994;2024-02-14T01:37:45;100577.16;;;0.11;100.00
75629;BME280;64213;46.452;16.994;2024-02-14T01:40:47;100568.50;;;0.10;100.00
75629;BME280;64213;46.452;16.994;2024-02-14T01:43:50;100568.50;;;0.10;100.00
75629;BME280;64213;46.452;16.994;2024-02-14T01:46:54;100573.69;;;0.10;100.00
75629;BME280;64213;46.452;16.994;2024-02-14T01:49:56;100572.84;;;0.10;100.00
75629;BME280;64213;46.452;16.994;2024-02-14T01:53:00;100572.84;;;0.08;100.00
75629;BME280;64213;46.452;16.994;2024-02-14T01:56:04;100576.31;;;0.09;100.00
75629;BME280;64213;46.452;16.994;2024-02-14T01:59:09;100567.59;;;0.11;100.00
75629;BME280;64213;46.452;16.994;2024-02-14T02:02:12;100565.91;;;0.10;100.00
75629;BME280;64213;46.452;16.994;2024-02-14T02:05:15;100565.91;;;0.10;100.00
75629;BME280;64213;46.452;16.994;2024-02-14T02:08:19;100567.66;;;0.08;100.00
75629;BME280;64213;46.452;16.994;2024-02-14T02:11:22;100564.22;;;0.05;100.00
75629;BME280;64213;46.452;16.994;2024-02-14T02:14:24;100562.50;;;0.02;100.00
75629;BME280;64213;46.452;16.994;2024-02-14T02:17:28;100571.06;;;0.12;100.00
75629;BME280;64213;46.452;16.994;2024-02-14T02:20:32;100570.19;;;0.13;100.00
75629;BME280;64213;46.452;16.994;2024-02-14T02:23:36;100568.63;;;-0.01;100.00
75629;BME280;64213;46.452;16.994;2024-02-14T02:26:38;100572.28;;;-0.15;100.00
75629;BME280;64213;46.452;16.994;2024-02-14T02:29:41;100590.53;;;-0.23;100.00
75629;BME280;64213;46.452;16.994;2024-02-14T02:32:43;100580.28;;;-0.35;100.00
75629;BME280;64213;46.452;16.994;2024-02-14T02:35:47;100581.25;;;-0.44;100.00
75629;BME280;64213;46.452;16.994;2024-02-14T02:38:52;100578.72;;;-0.50;100.00
75629;BME280;64213;46.452;16.994;2024-02-14T02:41:54;100577.03;;;-0.54;100.00
75629;BME280;64213;46.452;16.994;2024-02-14T02:44:59;100577.06;;;-0.59;100.00
75629;BME280;64213;46.452;16.994;2024-02-14T02:48:02;100576.22;;;-0.59;100.00
75629;BME280;64213;46.452;16.994;2024-02-14T02:51:05;100588.34;;;-0.61;100.00
75629;BME280;64213;46.452;16.994;2024-02-14T02:54:08;100584.00;;;-0.59;100.00
75629;BME280;64213;46.452;16.994;2024-02-14T02:57:10;100590.97;;;-0.63;100.00
75629;BME280;64213;46.452;16.994;2024-02-14T03:00:13;100590.09;;;-0.62;100.00
75629;BME280;64213;46.452;16.994;2024-02-14T03:03:16;100590.06;;;-0.59;100.00
75629;BME280;64213;46.452;16.994;2024-02-14T03:06:19;100587.44;;;-0.56;100.00
75629;BME280;64213;46.452;16.994;2024-02-14T03:09:22;100587.47;;;-0.60;100.00
75629;BME280;64213;46.452;16.994;2024-02-14T03:12:25;100597.00;;;-0.59;100.00
75629;BME280;64213;46.452;16.994;2024-02-14T03:15:30;100599.59;;;-0.61;100.00
75629;BME280;64213;46.452;16.994;2024-02-14T03:18:32;100606.53;;;-0.60;100.00
75629;BME280;64213;46.452;16.994;2024-02-14T03:21:35;100610.84;;;-0.57;100.00
75629;BME280;64213;46.452;16.994;2024-02-14T03:24:38;100612.56;;;-0.56;100.00
75629;BME280;64213;46.452;16.994;2024-02-14T03:27:41;100618.59;;;-0.54;100.00
75629;BME280;64213;46.452;16.994;2024-02-14T03:30:44;100617.69;;;-0.50;100.00
75629;BME280;64213;46.452;16.994;2024-02-14T03:33:46;100617.69;;;-0.50;100.00
75629;BME280;64213;46.452;16.994;2024-02-14T03:36:49;100625.53;;;-0.56;100.00
75629;BME280;64213;46.452;16.994;2024-02-14T03:39:53;100623.81;;;-0.59;100.00
75629;BME280;64213;46.452;16.994;2024-02-14T03:42:56;100630.72;;;-0.58;100.00
75629;BME280;64213;46.452;16.994;2024-02-14T03:45:59;100635.09;;;-0.61;100.00
75629;BME280;64213;46.452;16.994;2024-02-14T03:49:01;100635.12;;;-0.64;100.00
75629;BME280;64213;46.452;16.994;2024-02-14T03:52:05;100637.75;;;-0.66;100.00
75629;BME280;64213;46.452;16.994;2024-02-14T03:55:13;100636.94;;;-0.73;100.00
75629;BME280;64213;46.452;16.994;2024-02-14T03:58:16;100641.31;;;-0.78;100.00
75629;BME280;64213;46.452;16.994;2024-02-14T04:01:24;100645.72;;;-0.86;100.00
75629;BME280;64213;46.452;16.994;2024-02-14T04:04:27;100651.81;;;-0.93;100.00
75629;BME280;64213;46.452;16.994;2024-02-14T04:07:31;100644.03;;;-0.95;100.00
75629;BME280;64213;46.452;16.994;2024-02-14T04:10:33;100652.62;;;-0.86;100.00
75629;BME280;64213;46.452;16.994;2024-02-14T04:13:36;100657.84;;;-0.91;100.00
75629;BME280;64213;46.452;16.994;2024-02-14T04:16:38;100651.81;;;-0.93;100.00
75629;BME280;64213;46.452;16.994;2024-02-14T04:19:42;100663.06;;;-0.91;100.00
75629;BME280;64213;46.452;16.994;2024-02-14T04:22:44;100655.25;;;-0.88;100.00
75629;BME280;64213;46.452;16.994;2024-02-14T04:25:47;100664.72;;;-0.84;100.00
75629;BME280;64213;46.452;16.994;2024-02-14T04:28:50;100670.81;;;-0.88;100.00
75629;BME280;64213;46.452;16.994;2024-02-14T04:31:52;100668.25;;;-0.91;100.00
75629;BME280;64213;46.452;16.994;2024-02-14T04:34:54;100671.75;;;-0.95;100.00
75629;BME280;64213;46.452;16.994;2024-02-14T04:37:57;100670.03;;;-0.99;100.00
75629;BME280;64213;46.452;16.994;2024-02-14T04:41:00;100672.66;;;-1.04;100.00
75629;BME280;64213;46.452;16.994;2024-02-14T04:44:06;100674.44;;;-1.12;100.00
75629;BME280;64213;46.452;16.994;2024-02-14T04:47:09;100674.41;;;-1.04;100.00
75629;BME280;64213;46.452;16.994;2024-02-14T04:50:14;100683.06;;;-1.07;100.00
75629;BME280;64213;46.452;16.994;2024-02-14T04:53:17;100681.34;;;-1.08;100.00
75629;BME280;64213;46.452;16.994;2024-02-14T04:56:19;100681.37;;;-1.11;100.00
75629;BME280;64213;46.452;16.994;2024-02-14T04:59:24;100682.22;;;-1.12;100.00
75629;BME280;64213;46.452;16.994;2024-02-14T05:02:26;100690.03;;;-1.13;100.00
75629;BME280;64213;46.452;16.994;2024-02-14T05:05:30;100693.53;;;-1.18;100.00
75629;BME280;64213;46.452;16.994;2024-02-14T05:08:32;100701.31;;;-1.21;100.00
75629;BME280;64213;46.452;16.994;2024-02-14T05:11:35;100703.03;;;-1.18;100.00
75629;BME280;64213;46.452;16.994;2024-02-14T05:14:38;100694.37;;;-1.22;100.00
75629;BME280;64213;46.452;16.994;2024-02-14T05:17:42;100695.25;;;-1.20;100.00
75629;BME280;64213;46.452;16.994;2024-02-14T05:20:45;100697.84;;;-1.20;100.00
75629;BME280;64213;46.452;16.994;2024-02-14T05:23:48;100706.50;;;-1.18;100.00
75629;BME280;64213;46.452;16.994;2024-02-14T05:26:53;100707.34;;;-1.19;100.00
75629;BME280;64213;46.452;16.994;2024-02-14T05:29:56;100708.25;;;-1.18;100.00
75629;BME280;64213;46.452;16.994;2024-02-14T05:33:00;100716.00;;;-1.17;100.00
75629;BME280;64213;46.452;16.994;2024-02-14T05:36:03;100716.88;;;-1.14;100.00
75629;BME280;64213;46.452;16.994;2024-02-14T05:39:08;100715.97;;;-1.15;100.00
75629;BME280;64213;46.452;16.994;2024-02-14T05:42:12;100718.59;;;-1.17;100.00
75629;BME280;64213;46.452;16.994;2024-02-14T05:45:14;100724.66;;;-1.16;100.00
75629;BME280;64213;46.452;16.994;2024-02-14T05:48:17;100725.50;;;-1.12;100.00
75629;BME280;64213;46.452;16.994;2024-02-14T05:51:20;100727.25;;;-1.14;100.00
75629;BME280;64213;46.452;16.994;2024-02-14T05:54:22;100723.75;;;-1.15;100.00
75629;BME280;64213;46.452;16.994;2024-02-14T05:57:24;100728.06;;;-1.09;100.00
75629;BME280;64213;46.452;16.994;2024-02-14T06:00:27;100737.59;;;-1.05;100.00
75629;BME280;64213;46.452;16.994;2024-02-14T06:03:31;100732.41;;;-1.10;100.00
75629;BME280;64213;46.452;16.994;2024-02-14T06:06:34;100738.41;;;-1.03;100.00
75629;BME280;64213;46.452;16.994;2024-02-14T06:09:37;100741.00;;;-1.03;100.00
75629;BME280;64213;46.452;16.994;2024-02-14T06:16:50;100750.53;;;-1.02;100.00
75629;BME280;64213;46.452;16.994;2024-02-14T06:19:55;100754.00;;;-1.03;100.00
75629;BME280;64213;46.452;16.994;2024-02-14T06:22:57;100754.00;;;-1.03;100.00
75629;BME280;64213;46.452;16.994;2024-02-14T06:26:07;100761.78;;;-1.03;100.00
75629;BME280;64213;46.452;16.994;2024-02-14T06:29:10;100762.66;;;-1.03;100.00
75629;BME280;64213;46.452;16.994;2024-02-14T06:32:16;100764.38;;;-0.99;100.00
75629;BME280;64213;46.452;16.994;2024-02-14T06:35:19;100760.88;;;-0.96;100.00
75629;BME280;64213;46.452;16.994;2024-02-14T06:38:23;100767.78;;;-0.94;100.00
75629;BME280;64213;46.452;16.994;2024-02-14T06:41:26;100766.91;;;-0.88;100.00
75629;BME280;64213;46.452;16.994;2024-02-14T06:44:28;100780.75;;;-0.83;100.00
75629;BME280;64213;46.452;16.994;2024-02-14T06:47:31;100774.62;;;-0.77;100.00
75629;BME280;64213;46.452;16.994;2024-02-14T06:54:32;100773.66;;;-0.64;100.00
75629;BME280;64213;46.452;16.994;2024-02-14T06:57:35;100782.25;;;-0.51;100.00
75629;BME280;64213;46.452;16.994;2024-02-14T07:00:38;100789.16;;;-0.47;100.00
75629;BME280;64213;46.452;16.994;2024-02-14T07:03:40;100791.72;;;-0.39;100.00
75629;BME280;64213;46.452;16.994;2024-02-14T07:06:43;100786.47;;;-0.36;100.00
75629;BME280;64213;46.452;16.994;2024-02-14T07:09:46;100788.12;;;-0.26;100.00
75629;BME280;64213;46.452;16.994;2024-02-14T07:12:48;100781.12;;;-0.15;100.00
75629;BME280;64213;46.452;16.994;2024-02-14T07:15:50;100781.94;;;-0.08;100.00
75629;BME280;64213;46.452;16.994;2024-02-14T07:18:53;100786.19;;;0.01;100.00
75629;BME280;64213;46.452;16.994;2024-02-14T07:21:57;100788.66;;;0.14;100.00
75629;BME280;64213;46.452;16.994;2024-02-14T07:25:00;100785.97;;;0.23;100.00
75629;BME280;64213;46.452;16.994;2024-02-14T07:28:02;100784.09;;;0.39;100.00
75629;BME280;64213;46.452;16.994;2024-02-14T07:31:05;100787.44;;;0.51;100.00
75629;BME280;64213;46.452;16.994;2024-02-14T07:34:07;100791.09;;;1.05;100.00
75629;BME280;64213;46.452;16.994;2024-02-14T07:37:11;100780.88;;;2.09;100.00
75629;BME280;64213;46.452;16.994;2024-02-14T07:40:14;100781.06;;;2.90;99.34
75629;BME280;64213;46.452;16.994;2024-02-14T07:43:19;100781.66;;;3.43;97.64
75629;BME280;64213;46.452;16.994;2024-02-14T07:46:21;100783.88;;;4.31;89.97
75629;BME280;64213;46.452;16.994;2024-02-14T07:49:24;100782.53;;;5.10;89.48
75629;BME280;64213;46.452;16.994;2024-02-14T07:52:27;100777.97;;;6.01;81.03
75629;BME280;64213;46.452;16.994;2024-02-14T07:55:29;100778.84;;;6.77;78.90
75629;BME280;64213;46.452;16.994;2024-02-14T07:58:32;100775.41;;;7.21;75.77
75629;BME280;64213;46.452;16.994;2024-02-14T08:01:35;100783.50;;;6.92;80.56
75629;BME280;64213;46.452;16.994;2024-02-14T08:04:37;100789.00;;;7.33;77.33
75629;BME280;64213;46.452;16.994;2024-02-14T08:07:40;100786.66;;;7.25;77.68
75629;BME280;64213;46.452;16.994;2024-02-14T08:10:42;100792.38;;;7.58;75.25
75629;BME280;64213;46.452;16.994;2024-02-14T08:13:45;100795.00;;;7.80;73.82
75629;BME280;64213;46.452;16.994;2024-02-14T08:16:47;100793.47;;;7.53;71.66
75629;BME280;64213;46.452;16.994;2024-02-14T08:19:50;100795.88;;;7.81;73.35
75629;BME280;64213;46.452;16.994;2024-02-14T08:22:52;100792.63;;;8.16;72.24
75629;BME280;64213;46.452;16.994;2024-02-14T08:25:55;100796.34;;;7.46;76.86
75629;BME280;64213;46.452;16.994;2024-02-14T08:28:57;100795.09;;;7.33;74.12
75629;BME280;64213;46.452;16.994;2024-02-14T08:32:00;100802.44;;;7.25;75.92
75629;BME280;64213;46.452;16.994;2024-02-14T08:35:03;100798.38;;;7.16;74.72
75629;BME280;64213;46.452;16.994;2024-02-14T08:38:06;100791.56;;;7.34;73.50
75629;BME280;64213;46.452;16.994;2024-02-14T08:41:08;100776.06;;;7.27;74.56
75629;BME280;64213;46.452;16.994;2024-02-14T08:44:11;100773.22;;;6.86;77.63
75629;BME280;64213;46.452;16.994;2024-02-14T08:47:13;100785.31;;;7.37;73.36
75629;BME280;64213;46.452;16.994;2024-02-14T08:50:15;100782.87;;;7.54;74.22
75629;BME280;64213;46.452;16.994;2024-02-14T08:53:18;100785.22;;;7.84;73.50
75629;BME280;64213;46.452;16.994;2024-02-14T08:56:21;100788.66;;;7.86;73.34
75629;BME280;64213;46.452;16.994;2024-02-14T08:59:26;100788.91;;;8.00;73.59
75629;BME280;64213;46.452;16.994;2024-02-14T09:02:29;100781.00;;;8.63;69.47
75629;BME280;64213;46.452;16.994;2024-02-14T09:05:31;100781.62;;;8.89;68.10
75629;BME280;64213;46.452;16.994;2024-02-14T09:08:34;100787.78;;;9.27;67.69
75629;BME280;64213;46.452;16.994;2024-02-14T09:11:38;100791.56;;;9.40;68.35
75629;BME280;64213;46.452;16.994;2024-02-14T09:14:43;100798.53;;;9.60;66.35
75629;BME280;64213;46.452;16.994;2024-02-14T09:17:45;100802.22;;;9.75;65.92
75629;BME280;64213;46.452;16.994;2024-02-14T09:20:48;100789.53;;;10.00;64.79
75629;BME280;64213;46.452;16.994;2024-02-14T09:23:52;100782.87;;;10.63;62.60
75629;BME280;64213;46.452;16.994;2024-02-14T09:26:54;100784.09;;;11.38;59.47
75629;BME280;64213;46.452;16.994;2024-02-14T09:29:57;100786.66;;;11.71;59.52
75629;BME280;64213;46.452;16.994;2024-02-14T09:32:59;100794.13;;;11.49;58.94
75629;BME280;64213;46.452;16.994;2024-02-14T09:36:03;100793.66;;;11.72;58.55
75629;BME280;64213;46.452;16.994;2024-02-14T09:39:06;100791.34;;;11.82;58.28
75629;BME280;64213;46.452;16.994;2024-02-14T09:42:13;100796.28;;;12.04;59.19
75629;BME280;64213;46.452;16.994;2024-02-14T09:45:17;100793.84;;;11.53;59.46
75629;BME280;64213;46.452;16.994;2024-02-14T09:48:26;100791.16;;;12.01;58.75
75629;BME280;64213;46.452;16.994;2024-02-14T09:51:30;100786.63;;;12.47;55.75
75629;BME280;64213;46.452;16.994;2024-02-14T09:54:33;100785.44;;;12.82;54.46
75629;BME280;64213;46.452;16.994;2024-02-14T09:57:42;100793.47;;;12.07;53.58
75629;BME280;64213;46.452;16.994;2024-02-14T10:00:45;100787.34;;;11.59;57.26
75629;BME280;64213;46.452;16.994;2024-02-14T10:03:47;100786.53;;;12.04;54.21
75629;BME280;64213;46.452;16.994;2024-02-14T10:06:50;100784.25;;;11.35;56.45
75629;BME280;64213;46.452;16.994;2024-02-14T10:09:53;100779.97;;;11.32;56.25
75629;BME280;64213;46.452;16.994;2024-02-14T10:12:56;100772.84;;;11.80;52.88
75629;BME280;64213;46.452;16.994;2024-02-14T10:15:58;100772.87;;;12.41;50.19
75629;BME280;64213;46.452;16.994;2024-02-14T10:19:01;100776.69;;;13.51;48.91
75629;BME280;64213;46.452;16.994;2024-02-14T10:22:04;100775.19;;;13.33;48.51
75629;BME280;64213;46.452;16.994;2024-02-14T10:25:08;100761.84;;;13.88;46.85
75629;BME280;64213;46.452;16.994;2024-02-14T10:28:13;100762.63;;;14.03;45.86
75629;BME280;64213;46.452;16.994;2024-02-14T10:31:18;100753.69;;;14.57;44.25
75629;BME280;64213;46.452;16.994;2024-02-14T10:34:24;100760.78;;;15.44;43.22
75629;BME280;64213;46.452;16.994;2024-02-14T10:37:28;100754.00;;;16.12;41.23
75629;BME280;64213;46.452;16.994;2024-02-14T10:40:32;100750.41;;;15.89;41.63
75629;BME280;64213;46.452;16.994;2024-02-14T10:43:35;100733.81;;;16.55;40.50
75629;BME280;64213;46.452;16.994;2024-02-14T10:46:39;100742.09;;;16.96;39.81
75629;BME280;64213;46.452;16.994;2024-02-14T10:49:42;100740.00;;;17.23;38.96
75629;BME280;64213;46.452;16.994;2024-02-14T10:52:48;100736.09;;;18.34;35.63
75629;BME280;64213;46.452;16.994;2024-02-14T10:55:51;100729.94;;;18.02;37.66
75629;BME280;64213;46.452;16.994;2024-02-14T10:58:57;100731.38;;;16.51;39.82
75629;BME280;64213;46.452;16.994;2024-02-14T11:02:01;100725.94;;;16.07;40.06
75629;BME280;64213;46.452;16.994;2024-02-14T11:05:04;100726.44;;;15.76;40.63
75629;BME280;64213;46.452;16.994;2024-02-14T11:08:10;100720.22;;;14.91;42.02
75629;BME280;64213;46.452;16.994;2024-02-14T11:11:15;100718.00;;;15.94;39.40
75629;BME280;64213;46.452;16.994;2024-02-14T11:14:18;100707.56;;;17.16;37.00
75629;BME280;64213;46.452;16.994;2024-02-14T11:17:24;100712.72;;;15.57;40.06
75629;BME280;64213;46.452;16.994;2024-02-14T11:20:32;100703.31;;;15.88;39.43
75629;BME280;64213;46.452;16.994;2024-02-14T11:23:35;100702.88;;;15.46;40.45
75629;BME280;64213;46.452;16.994;2024-02-14T11:26:48;100697.59;;;15.33;39.28
75629;BME280;64213;46.452;16.994;2024-02-14T11:29:52;100692.38;;;15.56;38.62
75629;BME280;64213;46.452;16.994;2024-02-14T11:32:55;100694.16;;;15.31;39.57
75629;BME280;64213;46.452;16.994;2024-02-14T11:36:01;100680.94;;;14.69;39.61
75629;BME280;64213;46.452;16.994;2024-02-14T11:39:10;100677.03;;;14.86;39.66
75629;BME280;64213;46.452;16.994;2024-02-14T11:42:14;100691.59;;;14.56;40.45
75629;BME280;64213;46.452;16.994;2024-02-14T11:45:16;100683.44;;;14.83;39.97
75629;BME280;64213;46.452;16.994;2024-02-14T11:48:20;100676.56;;;15.42;38.82
75629;BME280;64213;46.452;16.994;2024-02-14T11:51:23;100680.87;;;15.91;38.23
75629;BME280;64213;46.452;16.994;2024-02-14T11:54:27;100667.00;;;16.10;38.17
75629;BME280;64213;46.452;16.994;2024-02-14T11:57:30;100668.38;;;16.38;37.33
75629;BME280;64213;46.452;16.994;2024-02-14T12:00:32;100670.78;;;16.74;37.37
75629;BME280;64213;46.452;16.994;2024-02-14T12:03:35;100668.97;;;17.09;36.34
75629;BME280;64213;46.452;16.994;2024-02-14T12:06:39;100662.47;;;15.64;38.08
75629;BME280;64213;46.452;16.994;2024-02-14T12:09:44;100661.72;;;16.43;37.53
75629;BME280;64213;46.452;16.994;2024-02-14T12:12:47;100655.25;;;17.99;35.45
75629;BME280;64213;46.452;16.994;2024-02-14T12:15:51;100664.47;;;17.41;35.59
75629;BME280;64213;46.452;16.994;2024-02-14T12:19:04;100657.66;;;18.02;34.72
75629;BME280;64213;46.452;16.994;2024-02-14T12:22:12;100647.50;;;18.78;34.12
75629;BME280;64213;46.452;16.994;2024-02-14T12:25:20;100650.63;;;18.01;35.01
75629;BME280;64213;46.452;16.994;2024-02-14T12:28:23;100646.87;;;17.71;35.06
75629;BME280;64213;46.452;16.994;2024-02-14T12:31:25;100650.47;;;17.17;36.06
75629;BME280;64213;46.452;16.994;2024-02-14T12:34:28;100644.84;;;17.31;36.01
75629;BME280;64213;46.452;16.994;2024-02-14T12:37:31;100636.81;;;18.26;35.23
75629;BME280;64213;46.452;16.994;2024-02-14T12:40:35;100626.94;;;18.57;33.88
75629;BME280;64213;46.452;16.994;2024-02-14T12:43:37;100631.62;;;17.83;35.56
75629;BME280;64213;46.452;16.994;2024-02-14T12:46:40;100628.66;;;16.89;36.54
75629;BME280;64213;46.452;16.994;2024-02-14T12:49:42;100623.31;;;16.56;36.98
75629;BME280;64213;46.452;16.994;2024-02-14T12:52:46;100625.50;;;16.95;36.65
75629;BME280;64213;46.452;16.994;2024-02-14T12:55:48;100607.16;;;17.76;34.82
75629;BME280;64213;46.452;16.994;2024-02-14T12:58:51;100610.91;;;18.06;34.66
75629;BME280;64213;46.452;16.994;2024-02-14T13:01:53;100613.87;;;17.71;35.30
75629;BME280;64213;46.452;16.994;2024-02-14T13:04:56;100602.22;;;17.72;34.49
75629;BME280;64213;46.452;16.994;2024-02-14T13:07:58;100607.63;;;18.23;33.78
75629;BME280;64213;46.452;16.994;2024-02-14T13:11:00;100601.00;;;17.97;34.03
75629;BME280;64213;46.452;16.994;2024-02-14T13:14:03;100605.53;;;18.06;33.79
75629;BME280;64213;46.452;16.994;2024-02-14T13:17:06;100601.66;;;17.89;34.05
75629;BME280;64213;46.452;16.994;2024-02-14T13:20:09;100593.41;;;17.60;34.62
75629;BME280;64213;46.452;16.994;2024-02-14T13:23:12;100593.13;;;17.42;34.87
75629;BME280;64213;46.452;16.994;2024-02-14T13:26:16;100599.53;;;16.86;35.47
75629;BME280;64213;46.452;16.994;2024-02-14T13:29:19;100597.19;;;17.99;33.84
75629;BME280;64213;46.452;16.994;2024-02-14T13:32:21;100597.50;;;17.43;34.73
75629;BME280;64213;46.452;16.994;2024-02-14T13:35:23;100597.09;;;17.48;35.02
75629;BME280;64213;46.452;16.994;2024-02-14T13:38:26;100606.09;;;16.60;36.53
75629;BME280;64213;46.452;16.994;2024-02-14T13:41:28;100604.53;;;17.23;35.69
75629;BME280;64213;46.452;16.994;2024-02-14T13:44:31;100589.09;;;18.41;34.05
75629;BME280;64213;46.452;16.994;2024-02-14T13:47:33;100595.63;;;17.76;34.31
75629;BME280;64213;46.452;16.994;2024-02-14T13:50:37;100601.28;;;17.40;34.82
75629;BME280;64213;46.452;16.994;2024-02-14T13:53:40;100603.16;;;16.74;35.87
75629;BME280;64213;46.452;16.994;2024-02-14T13:56:43;100599.87;;;17.25;34.79
75629;BME280;64213;46.452;16.994;2024-02-14T13:59:45;100603.53;;;16.81;35.77
75629;BME280;64213;46.452;16.994;2024-02-14T14:02:50;100600.41;;;16.42;36.89
75629;BME280;64213;46.452;16.994;2024-02-14T14:05:52;100602.22;;;16.19;37.15
75629;BME280;64213;46.452;16.994;2024-02-14T14:08:55;100605.69;;;15.86;37.33
75629;BME280;64213;46.452;16.994;2024-02-14T14:11:58;100594.19;;;16.52;36.77
75629;BME280;64213;46.452;16.994;2024-02-14T14:15:01;100588.88;;;16.19;37.66
75629;BME280;64213;46.452;16.994;2024-02-14T14:18:04;100590.78;;;16.39;37.54
75629;BME280;64213;46.452;16.994;2024-02-14T14:21:06;100585.53;;;15.70;38.85
75629;BME280;64213;46.452;16.994;2024-02-14T14:24:09;100572.75;;;15.63;39.21
75629;BME280;64213;46.452;16.994;2024-02-14T14:27:12;100583.72;;;15.71;39.11
75629;BME280;64213;46.452;16.994;2024-02-14T14:30:17;100584.34;;;14.91;40.73
75629;BME280;64213;46.452;16.994;2024-02-14T14:33:21;100574.94;;;15.57;39.49
75629;BME280;64213;46.452;16.994;2024-02-14T14:36:24;100571.25;;;15.47;39.38
75629;BME280;64213;46.452;16.994;2024-02-14T14:39:28;100578.28;;;14.89;40.85
75629;BME280;64213;46.452;16.994;2024-02-14T14:42:32;100576.47;;;14.53;41.31
75629;BME280;64213;46.452;16.994;2024-02-14T14:45:34;100572.34;;;14.36;42.05
75629;BME280;64213;46.452;16.994;2024-02-14T14:48:36;100581.31;;;13.84;42.85
75629;BME280;64213;46.452;16.994;2024-02-14T14:51:39;100573.66;;;13.66;43.44
75629;BME280;64213;46.452;16.994;2024-02-14T14:54:42;100570.13;;;13.53;43.65
75629;BME280;64213;46.452;16.994;2024-02-14T14:57:44;100583.69;;;13.36;44.12
75629;BME280;64213;46.452;16.994;2024-02-14T15:00:47;100583.97;;;13.04;44.58
75629;BME280;64213;46.452;16.994;2024-02-14T15:03:49;100585.41;;;12.68;44.43
75629;BME280;64213;46.452;16.994;2024-02-14T15:06:51;100592.66;;;12.52;44.24
75629;BME280;64213;46.452;16.994;2024-02-14T15:09:55;100594.19;;;12.42;44.40
75629;BME280;64213;46.452;16.994;2024-02-14T15:12:57;100590.88;;;12.24;44.19
75629;BME280;64213;46.452;16.994;2024-02-14T15:16:00;100591.38;;;12.16;44.10
75629;BME280;64213;46.452;16.994;2024-02-14T15:19:05;100593.72;;;12.06;44.25
75629;BME280;64213;46.452;16.994;2024-02-14T15:22:09;100593.25;;;12.00;44.73
75629;BME280;64213;46.452;16.994;2024-02-14T15:25:12;100588.63;;;12.03;44.63
75629;BME280;64213;46.452;16.994;2024-02-14T15:28:15;100588.91;;;12.13;44.32
75629;BME280;64213;46.452;16.994;2024-02-14T15:31:24;100586.25;;;12.13;44.43
75629;BME280;64213;46.452;16.994;2024-02-14T15:34:45;100593.63;;;12.08;44.33
75629;BME280;64213;46.452;16.994;2024-02-14T15:37:49;100596.75;;;12.00;44.72
75629;BME280;64213;46.452;16.994;2024-02-14T15:40:52;100600.69;;;11.93;44.75
75629;BME280;64213;46.452;16.994;2024-02-14T15:43:56;100594.06;;;11.86;44.97
75629;BME280;64213;46.452;16.994;2024-02-14T15:46:59;100600.84;;;11.76;45.44
75629;BME280;64213;46.452;16.994;2024-02-14T15:50:03;100599.41;;;11.70;45.73